Redwood Natl Park, California
Current Conditions -  °F | °C
As of 4:56 PM on Thursday 18 Dec 2014 (Local Time) from KCEC Reporting Station
Light Rain Light Rain  
Wind Chill: 56°   Ceiling: 5500
Heat Index: 56°   Visibility: 9mi
Dew Point: 50°   Wind: 15mph
Humidity: 80%   Direction: 170°S
Pressure: 29.94"   Gusts: 30mph
Location:  41.48°N, 124.06°W
Report Text: KCEC 190056Z AUTO 17013G26KT 9SM -RA FEW039 SCT047 OVC055 13/10 A2994 RMK AO2 PK WND 18026/0047 SLP140 P0001 T01330100
Loading
Personal Weather Stations






























Interactive Weather Map New forecast layout! Learn more

10-Day Weather Forecast

Advertisements
Track Severe Weather on mobile